Portada
METAR-TAF:

METAR-TAF

Aeropuertos :

Base Aérea de Armilla

Granada, España

latitud: 37-08N, longitud: 003-38-08W, altitud: 700 m

Observación

El informe se hizo hace 27 minutos, a las 09:30 UTC
Viento 1 kt con dirección variable
Temperatura 9°C
Humedad 81%
Presión 1024 hPa
Visibilidad 10 km o más
Nubes dispersas a una altura de 2000 ft

METAR: LEGA 270930Z VRB01KT 9999 SCT020 09/06 Q1024

Hora: 10:57 (09:57 UTC)

Pronóstico

El informe se hizo hace 22 horas y 57 minutos, a las 11:00 UTC
Pronóstico válido del 26 a las 12 UTC al 27 a las 12 UTC
Viento 2 kt con dirección variable
Visibilidad 10 km o más
Escasas nubes a una altura de 7500 ft
Evolucionando progresivamente
del 26 a las 15 UTC al 26 a las 17 UTC
Viento 10 kt del sur
Evolucionando progresivamente
del 26 a las 19 UTC al 26 a las 21 UTC
Viento 2 kt con dirección variable

TAF: LEGA 261100Z 2612/2712 VRB02KT 9999 FEW075 TX20/2615Z TN04/2706Z BECMG 2615/2617 18010KT BECMG 2619/2621 VRB02KT

Observaciones y pronósticos meteorológicos de más de 4000 aeropuertos (mensajes METAR y TAF).

Los puntos amarillos y rojos representan las estaciones disponibles.

Ponga el ratón en el punto deseado para ver el nombre de la estación.

Haga clic para ver las observaciones y los pronósticos meteorológicos.

Para cambiar el mapa : haga clic en los botones verdes con una cruz de color negro para hacer un zoom, en el botón verde con un guión para alejar o en las flechas verdes para mapas adyacentes.


METAR-TAF: